This is the latest recevied weather packets stored in our database for station/object CT2IRJ-11. If no packets are shown the sender has not sent any weather packets the latest 10 day(s).
| Time | Temp. | Humidity | Pressure | Rain* | Wind** | Luminosity | Snow |
|---|---|---|---|---|---|---|---|
| 1777485510 | 18.33° C | 66% | 1009.8 hPa | 0 mm | - | 111 W/m² | - |
| 1777485210 | 17.78° C | 68% | 1009.8 hPa | 0 mm | - | 98 W/m² | - |
| 1777484912 | 17.78° C | 69% | 1009.8 hPa | 0 mm | - | 39 W/m² | - |
| 1777484610 | 17.78° C | 69% | 1009.8 hPa | 0 mm | - | 30 W/m² | - |
| 1777484310 | 17.78° C | 69% | 1009.8 hPa | 0 mm | - | 24 W/m² | - |
| 1777484010 | 17.78° C | 68% | 1009.5 hPa | 0 mm | - | 26 W/m² | - |
| 1777483709 | 17.78° C | 67% | 1009.8 hPa | 0 mm | - | 29 W/m² | - |
| 1777483410 | 18.33° C | 66% | 1009.5 hPa | 0 mm | - | 39 W/m² | - |
| 1777483110 | 18.89° C | 65% | 1009.5 hPa | 0 mm | - | 61 W/m² | - |
| 1777482810 | 19.44° C | 63% | 1009.5 hPa | 0 mm | - | 93 W/m² | - |
| 1777482509 | 18.89° C | 62% | 1009.5 hPa | 0 mm | - | 210 W/m² | - |
| 1777482214 | 20° C | 61% | 1009.5 hPa | 0 mm | - | 129 W/m² | - |
| 1777481911 | 20° C | 60% | 1009.5 hPa | 0 mm | - | 244 W/m² | - |
| 1777481610 | 19.44° C | 59% | 1009.5 hPa | 0 mm | - | 231 W/m² | - |
| 1777481310 | 18.33° C | 63% | 1009.5 hPa | 0 mm | - | 231 W/m² | - |
| 1777481009 | 18.33° C | 64% | 1009.1 hPa | 0 mm | - | 96 W/m² | - |
| 1777480709 | 18.33° C | 65% | 1009.1 hPa | 0 mm | - | 87 W/m² | - |
| 1777480410 | 18.89° C | 65% | 1009.1 hPa | 0 mm | - | 86 W/m² | - |
| 1777480109 | 19.44° C | 64% | 1008.8 hPa | 0 mm | - | 116 W/m² | - |
| 1777479810 | 20° C | 62% | 1008.8 hPa | 0 mm | - | 225 W/m² | - |
| 1777479510 | 20.56° C | 60% | 1009.1 hPa | 0 mm | - | 411 W/m² | - |
| 1777478967 | 19.44° C | 62% | 1008.8 hPa | 0 mm | - | 417 W/m² | - |
| 1777478610 | 18.89° C | 64% | 1009.1 hPa | 0 mm | - | 131 W/m² | - |
| 1777478309 | 18.89° C | 65% | 1008.8 hPa | 0 mm | - | 114 W/m² | - |
| 1777478010 | 19.44° C | 64% | 1008.8 hPa | 0 mm | - | 103 W/m² | - |
* Rain latest hour (hover to see other rain measurements)
** Current wind speed in m/s (hover to see current wind gust speed)